TimeEST,TemperatureF,Dew PointF,Humidity,Sea Level PressureIn,VisibilityMPH,Wind Direction,Wind SpeedMPH,Gust SpeedMPH,PrecipitationIn,Events,Conditions,WindDirDegrees,DateUTC
12:15 AM,48.2,39.2,71,30.06,10.0,NW,17.3,23.0,N/A,,Overcast,320,2013-01-18 05:15:00
12:35 AM,48.2,39.2,71,30.07,10.0,NW,15.0,20.7,N/A,,Overcast,320,2013-01-18 05:35:00
12:55 AM,48.2,41.0,76,30.09,10.0,NNW,19.6,28.8,N/A,,Overcast,340,2013-01-18 05:55:00
1:15 AM,46.4,39.2,76,30.10,10.0,North,11.5,23.0,N/A,,Mostly Cloudy,360,2013-01-18 06:15:00
1:35 AM,46.4,37.4,71,30.12,10.0,North,15.0,26.5,N/A,,Scattered Clouds,350,2013-01-18 06:35:00
1:55 AM,44.6,39.2,81,30.15,10.0,North,10.4,21.9,N/A,,Partly Cloudy,350,2013-01-18 06:55:00
2:15 AM,44.6,39.2,81,30.17,10.0,NNW,12.7,21.9,N/A,,Partly Cloudy,340,2013-01-18 07:15:00
2:35 AM,44.6,39.2,81,30.18,10.0,North,12.7,21.9,N/A,,Mostly Cloudy,350,2013-01-18 07:35:00
2:55 AM,44.6,39.2,81,30.20,10.0,NNW,16.1,29.9,N/A,,Mostly Cloudy,340,2013-01-18 07:55:00
3:15 AM,44.6,37.4,76,30.21,10.0,North,12.7,26.5,N/A,,Partly Cloudy,360,2013-01-18 08:15:00
3:35 AM,44.6,37.4,76,30.21,10.0,North,9.2,20.7,N/A,,Clear,360,2013-01-18 08:35:00
3:55 AM,44.6,37.4,76,30.23,10.0,North,13.8,24.2,N/A,,Clear,360,2013-01-18 08:55:00
4:15 AM,42.8,37.4,81,30.24,10.0,North,10.4,19.6,N/A,,Clear,350,2013-01-18 09:15:00
4:35 AM,42.8,37.4,81,30.25,10.0,North,10.4,17.3,N/A,,Clear,360,2013-01-18 09:35:00
4:55 AM,42.8,37.4,81,30.26,10.0,North,10.4,19.6,N/A,,Clear,350,2013-01-18 09:55:00
5:15 AM,42.8,37.4,81,30.27,10.0,North,10.4,16.1,N/A,,Clear,360,2013-01-18 10:15:00
5:35 AM,41.0,37.4,87,30.28,10.0,North,8.1,-,N/A,,Clear,10,2013-01-18 10:35:00
5:55 AM,41.0,37.4,87,30.30,10.0,North,4.6,-,N/A,,Clear,360,2013-01-18 10:55:00
6:15 AM,39.2,37.4,93,30.31,10.0,North,6.9,-,N/A,,Clear,360,2013-01-18 11:15:00
6:35 AM,39.2,37.4,93,30.32,10.0,North,3.5,-,N/A,,Clear,360,2013-01-18 11:35:00
6:55 AM,39.2,37.4,93,30.34,10.0,North,5.8,-,N/A,,Clear,360,2013-01-18 11:55:00
7:15 AM,39.2,37.4,93,30.35,10.0,North,4.6,-,N/A,,Clear,360,2013-01-18 12:15:00
7:35 AM,39.2,37.4,93,30.36,10.0,North,5.8,-,N/A,,Clear,360,2013-01-18 12:35:00
7:55 AM,39.2,35.6,87,30.38,10.0,North,6.9,-,N/A,,Clear,360,2013-01-18 12:55:00
8:15 AM,39.2,37.4,93,30.39,10.0,North,6.9,-,N/A,,Clear,360,2013-01-18 13:15:00
8:35 AM,39.2,37.4,93,30.40,10.0,North,5.8,-,N/A,,Clear,360,2013-01-18 13:35:00
8:55 AM,41.0,37.4,87,30.41,10.0,North,8.1,-,N/A,,Clear,360,2013-01-18 13:55:00
9:15 AM,42.8,37.4,81,30.43,10.0,North,8.1,-,N/A,,Clear,360,2013-01-18 14:15:00
9:35 AM,42.8,35.6,76,30.44,10.0,North,8.1,-,N/A,,Clear,10,2013-01-18 14:35:00
9:55 AM,44.6,35.6,71,30.45,10.0,North,9.2,-,N/A,,Clear,10,2013-01-18 14:55:00
10:15 AM,46.4,33.8,62,30.45,10.0,NNE,11.5,19.6,N/A,,Clear,20,2013-01-18 15:15:00
10:35 AM,46.4,33.8,62,30.45,10.0,North,8.1,16.1,N/A,,Clear,10,2013-01-18 15:35:00
10:55 AM,48.2,32.0,54,30.45,10.0,NNE,10.4,18.4,N/A,,Clear,20,2013-01-18 15:55:00
11:15 AM,48.2,32.0,54,30.45,10.0,North,9.2,-,N/A,,Clear,360,2013-01-18 16:15:00
11:35 AM,50.0,30.2,47,30.45,10.0,NNE,10.4,16.1,N/A,,Clear,20,2013-01-18 16:35:00
11:55 AM,51.8,30.2,44,30.44,10.0,North,9.2,-,N/A,,Clear,10,2013-01-18 16:55:00
12:15 PM,51.8,28.4,41,30.44,10.0,North,12.7,20.7,N/A,,Clear,10,2013-01-18 17:15:00
12:35 PM,51.8,28.4,41,30.43,10.0,NNE,9.2,-,N/A,,Clear,20,2013-01-18 17:35:00
12:55 PM,53.6,28.4,38,30.42,10.0,NNE,8.1,16.1,N/A,,Clear,30,2013-01-18 17:55:00
1:15 PM,53.6,26.6,35,30.42,10.0,North,8.1,17.3,N/A,,Clear,360,2013-01-18 18:15:00
1:35 PM,53.6,28.4,38,30.41,10.0,North,8.1,-,N/A,,Clear,360,2013-01-18 18:35:00
1:55 PM,55.4,28.4,36,30.41,10.0,NNE,8.1,-,N/A,,Clear,30,2013-01-18 18:55:00
2:15 PM,53.6,26.6,35,30.41,10.0,North,11.5,-,N/A,,Clear,360,2013-01-18 19:15:00
2:35 PM,55.4,26.6,33,30.41,10.0,NNE,3.5,18.4,N/A,,Clear,20,2013-01-18 19:35:00
2:55 PM,55.4,24.8,31,30.42,10.0,NNE,9.2,-,N/A,,Clear,20,2013-01-18 19:55:00
3:15 PM,55.4,26.6,33,30.42,10.0,North,8.1,-,N/A,,Clear,360,2013-01-18 20:15:00
3:35 PM,55.4,24.8,31,30.42,10.0,NE,9.2,-,N/A,,Clear,40,2013-01-18 20:35:00
3:55 PM,55.4,24.8,31,30.43,10.0,North,6.9,-,N/A,,Clear,10,2013-01-18 20:55:00
4:15 PM,55.4,26.6,33,30.43,10.0,Calm,Calm,-,N/A,,Clear,0,2013-01-18 21:15:00
4:35 PM,55.4,26.6,33,30.44,10.0,North,4.6,-,N/A,,Clear,10,2013-01-18 21:35:00
4:55 PM,53.6,26.6,35,30.45,10.0,NNE,6.9,-,N/A,,Clear,20,2013-01-18 21:55:00
5:15 PM,53.6,26.6,35,30.46,10.0,Calm,Calm,-,N/A,,Clear,0,2013-01-18 22:15:00
5:35 PM,51.8,30.2,44,30.47,10.0,North,4.6,-,N/A,,Clear,10,2013-01-18 22:35:00
5:55 PM,48.2,30.2,50,30.47,10.0,North,3.5,-,N/A,,Clear,10,2013-01-18 22:55:00
6:15 PM,46.4,32.0,57,30.47,10.0,Calm,Calm,-,N/A,,Clear,0,2013-01-18 23:15:00
6:35 PM,44.6,33.8,66,30.47,10.0,Calm,Calm,-,N/A,,Clear,0,2013-01-18 23:35:00
6:55 PM,44.6,32.0,61,30.48,10.0,NNE,3.5,-,N/A,,Clear,20,2013-01-18 23:55:00
7:15 PM,42.8,33.8,70,30.48,10.0,Calm,Calm,-,N/A,,Clear,0,2013-01-19 00:15:00
7:35 PM,39.2,33.8,81,30.49,10.0,Calm,Calm,-,N/A,,Clear,0,2013-01-19 00:35:00
7:55 PM,39.2,33.8,81,30.49,10.0,Calm,Calm,-,N/A,,Clear,0,2013-01-19 00:55:00
8:15 PM,39.2,33.8,81,30.49,10.0,Calm,Calm,-,N/A,,Clear,0,2013-01-19 01:15:00
8:35 PM,37.4,33.8,87,30.50,10.0,Calm,Calm,-,N/A,,Clear,0,2013-01-19 01:35:00
8:55 PM,37.4,33.8,87,30.50,10.0,Calm,Calm,-,N/A,,Clear,0,2013-01-19 01:55:00
9:15 PM,37.4,33.8,87,30.50,10.0,Calm,Calm,-,N/A,,Clear,0,2013-01-19 02:15:00
9:55 PM,37.4,33.8,87,30.50,10.0,Calm,Calm,-,N/A,,Clear,0,2013-01-19 02:55:00
10:15 PM,37.4,32.0,81,30.49,10.0,Calm,Calm,-,N/A,,Clear,0,2013-01-19 03:15:00
10:35 PM,39.2,32.0,75,30.49,10.0,Calm,Calm,-,N/A,,Clear,0,2013-01-19 03:35:00
10:55 PM,39.2,32.0,75,30.49,10.0,North,3.5,-,N/A,,Clear,10,2013-01-19 03:55:00
11:15 PM,39.2,32.0,75,30.49,10.0,Calm,Calm,-,N/A,,Partly Cloudy,0,2013-01-19 04:15:00
11:35 PM,39.2,32.0,75,30.48,10.0,Calm,Calm,-,N/A,,Mostly Cloudy,0,2013-01-19 04:35:00
11:55 PM,42.8,32.0,66,30.48,10.0,North,5.8,-,N/A,,Overcast,10,2013-01-19 04:55:00